Flight Track Log - Related Links

Times and Time Zones

All times are in EDT time to prevent confusion due to time zone crossing. See the N54KP flight status page for this flight to view local times or setup timezone preferences in your user account.

Time Position Orientation Groundspeed Altitude Reporting Facility
EDT Latitude Longitude Course Direction KTS MPH feet Rate Location/Type
Sat 01:37:51 PM 34.9833 -89.7833 180° South 70 81 700  Level KMEM
Sat 01:38:33 PM 34.9667 -89.7833 180° South 77 89 1,300 667 Climbing KMEM
Sat 01:39:12 PM 34.9458 -89.7714 155° Southeast 96 110 1,600 475 Climbing Memphis Center
Sat 01:40:14 PM 34.9228 -89.7494 142° Southeast 99 114 2,100 439 Climbing Memphis Center
Sat 01:41:15 PM 34.8978 -89.7317 150° Southeast 99 114 2,500 439 Climbing Memphis Center
Sat 01:42:17 PM 34.8694 -89.7206 162° South 100 115 3,000 532 Climbing Memphis Center
Sat 01:43:19 PM 34.8439 -89.7106 162° South 100 115 3,600 585 Climbing Memphis Center
Sat 01:44:20 PM 34.8175 -89.7067 173° South 99 114 4,200 585 Climbing Memphis Center
Sat 01:45:22 PM 34.7933 -89.7028 172° South 94 108 4,800 585 Climbing Memphis Center
Sat 01:46:23 PM 34.7689 -89.6969 169° South 92 106 5,400 634 Climbing Memphis Center
Sat 01:47:25 PM 34.7436 -89.6842 157° South 92 106 6,100 677 Climbing Memphis Center
Sat 01:48:27 PM 34.7122 -89.6689 158° South 98 113 6,800 488 Climbing Memphis Center
Sat 01:49:28 PM 34.6853 -89.6547 157° South 103 119 7,100 146 Climbing Memphis Center
Sat 01:50:30 PM 34.6494 -89.6381 159° South 129 148 7,100  Level Memphis Center
Sat 01:51:31 PM 34.6108 -89.6264 166° South 140 161 7,100  Level Memphis Center
Sat 01:52:33 PM 34.5725 -89.6183 170° South 140 161 7,100  Level Memphis Center
Sat 01:53:35 PM 34.5333 -89.6144 175° South 140 161 7,100  Level Memphis Center
Sat 01:54:36 PM 34.4939 -89.6111 176° South 140 161 7,100  Level Memphis Center
Sat 01:55:38 PM 34.4553 -89.6122 181° South 140 161 7,100  Level Memphis Center
Sat 01:56:40 PM 34.4097 -89.6194 187° South 140 161 7,100  Level Memphis Center
Sat 01:57:41 PM 34.3717 -89.6267 189° South 140 161 7,100  Level Memphis Center
Sat 01:58:43 PM 34.3356 -89.6392 196° South 138 159 7,100  Level Memphis Center
Sat 01:59:45 PM 34.2958 -89.6353 175° South 138 159 7,100  Level Memphis Center
Sat 02:00:46 PM 34.2567 -89.6200 162° South 146 168 7,100  Level Memphis Center
Sat 02:01:48 PM 34.2169 -89.6069 165° South 146 168 7,100  Level Memphis Center
Sat 02:02:50 PM 34.1764 -89.5947 166° South 147 169 7,100  Level Memphis Center
Sat 02:03:51 PM 34.1292 -89.5853 171° South 146 168 7,100  Level Memphis Center
Sat 02:04:53 PM 34.0900 -89.5778 171° South 146 168 7,100  Level Memphis Center
Sat 02:05:55 PM 34.0525 -89.5586 157° South 145 167 7,100  Level Memphis Center
Sat 02:06:56 PM 34.0136 -89.5383 157° South 146 168 7,100  Level Memphis Center
Sat 02:07:58 PM 33.9747 -89.5286 168° South 146 168 7,100  Level Memphis Center
Sat 02:09:00 PM 33.9353 -89.5222 172° South 146 168 7,100  Level Memphis Center
Sat 02:10:02 PM 33.8978 -89.5025 156° South 146 168 7,100  Level Memphis Center
Sat 02:11:03 PM 33.8536 -89.4772 155° Southeast 146 168 7,100  Level Memphis Center
Sat 02:12:05 PM 33.8153 -89.4575 157° South 146 168 7,100  Level Memphis Center
Sat 02:13:07 PM 33.7756 -89.4375 157° South 146 168 7,100  Level Memphis Center
Sat 02:14:08 PM 33.7372 -89.4150 154° Southeast 148 170 7,100  Level Memphis Center
Sat 02:15:10 PM 33.6986 -89.3972 159° South 149 171 7,100  Level Memphis Center
Sat 02:16:12 PM 33.6606 -89.3825 162° South 148 170 7,100  Level Memphis Center
Sat 02:17:13 PM 33.6214 -89.3664 161° South 148 170 7,100  Level Memphis Center
Sat 02:18:15 PM 33.5811 -89.3539 166° South 148 170 7,100  Level Memphis Center
Sat 02:19:17 PM 33.5353 -89.3281 155° Southeast 148 170 7,100  Level Memphis Center
Sat 02:20:19 PM 33.4969 -89.3075 156° South 149 171 7,100  Level Memphis Center
Sat 02:21:20 PM 33.4592 -89.2856 154° Southeast 149 171 7,100  Level Memphis Center
Sat 02:22:22 PM 33.4231 -89.2653 155° Southeast 149 171 7,100  Level Memphis Center
Sat 02:23:24 PM 33.3847 -89.2442 155° Southeast 149 171 7,100  Level Memphis Center
Sat 02:24:25 PM 33.3481 -89.2239 155° Southeast 149 171 7,100  Level Memphis Center
Sat 02:25:27 PM 33.3103 -89.2022 154° Southeast 149 171 7,100  Level Memphis Center
Sat 02:26:29 PM 33.2644 -89.1769 155° Southeast 149 171 7,100  Level Memphis Center
Sat 02:27:31 PM 33.2281 -89.1494 148° Southeast 150 173 7,100  Level Memphis Center
Sat 02:28:32 PM 33.1903 -89.1261 153° Southeast 151 174 7,100  Level Memphis Center
Sat 02:29:34 PM 33.1508 -89.1067 158° South 151 174 7,100  Level Memphis Center
Sat 02:30:36 PM 33.1108 -89.0858 156° South 152 175 7,100  Level Memphis Center
Sat 02:31:38 PM 33.0731 -89.0658 156° South 152 175 7,100  Level Memphis Center
Sat 02:32:40 PM 33.0261 -89.0419 157° South 152 175 7,100  Level Memphis Center
Sat 02:33:41 PM 32.9872 -89.0217 156° South 152 175 7,100  Level Memphis Center
Sat 02:34:43 PM 32.9497 -89.0028 157° South 152 175 7,100  Level Memphis Center
Sat 02:35:45 PM 32.9119 -88.9831 156° South 152 175 7,100  Level Memphis Center
Sat 02:36:47 PM 32.8728 -88.9631 157° South 152 175 7,100  Level Memphis Center
Sat 02:37:49 PM 32.8367 -88.9378 150° Southeast 151 174 7,100  Level Memphis Center
Sat 02:38:50 PM 32.7936 -88.9089 151° Southeast 151 174 7,100  Level Memphis Center
Sat 02:39:52 PM 32.7531 -88.8922 161° South 151 174 7,100  Level Memphis Center
Sat 02:40:54 PM 32.7139 -88.8775 162° South 151 174 7,100  Level Memphis Center
Sat 02:41:56 PM 32.6744 -88.8653 165° South 150 173 7,100  Level Memphis Center
Sat 02:42:58 PM 32.6339 -88.8517 164° South 149 171 7,100  Level Memphis Center
Sat 02:44:00 PM 32.5872 -88.8283 157° South 152 175 7,100  Level Memphis Center
Sat 02:45:01 PM 32.5494 -88.8072 155° Southeast 152 175 7,100  Level Memphis Center
Sat 02:46:03 PM 32.5122 -88.7842 152° Southeast 152 175 7,100  Level Memphis Center
Sat 02:47:05 PM 32.4753 -88.7594 151° Southeast 152 175 7,100  Level Memphis Center
Sat 02:48:07 PM 32.4386 -88.7342 150° Southeast 153 176 7,100  Level Memphis Center
Sat 02:49:08 PM 32.4017 -88.7117 153° Southeast 152 175 7,100  Level Memphis Center
Sat 02:50:10 PM 32.3553 -88.7106 179° South 147 169 7,100  Level Memphis Center
Sat 02:51:12 PM 32.3167 -88.7167 188° South 143 165 7,100  Level Memphis Center
Sat 02:52:14 PM 32.2775 -88.7183 182° South 143 165 7,100  Level Memphis Center
Sat 02:53:16 PM 32.2378 -88.7219 184° South 143 165 7,100  Level Memphis Center
Sat 02:54:17 PM 32.1986 -88.7242 183° South 143 165 7,100  Level Memphis Center
Sat 02:55:19 PM 32.1603 -88.7283 185° South 143 165 7,100  Level Memphis Center
Sat 02:56:21 PM 32.1142 -88.7039 156° South 151 174 7,100  Level Memphis Center
Sat 02:57:23 PM 32.0786 -88.6831 154° Southeast 148 170 7,100  Level Memphis Center
Sat 02:58:25 PM 32.0403 -88.6642 157° South 148 170 7,100  Level Memphis Center
Sat 02:59:26 PM 32.0022 -88.6444 156° South 148 170 7,100  Level Memphis Center
Sat 03:00:28 PM 31.9658 -88.6247 155° Southeast 148 170 7,100  Level Memphis Center
Sat 03:01:30 PM 31.9256 -88.6086 161° South 147 169 7,100  Level Memphis Center
Sat 03:02:32 PM 31.8886 -88.5914 158° South 146 168 7,100  Level Memphis Center
Sat 03:03:33 PM 31.8447 -88.5719 159° South 145 167 7,100  Level Memphis Center
Sat 03:04:35 PM 31.8089 -88.5514 154° Southeast 144 166 7,100  Level Memphis Center
Sat 03:05:37 PM 31.7733 -88.5289 152° Southeast 144 166 7,100  Level Memphis Center
Sat 03:06:39 PM 31.7367 -88.5083 155° Southeast 144 166 7,100  Level Memphis Center
Sat 03:07:40 PM 31.7014 -88.4881 154° Southeast 144 166 7,100  Level Memphis Center
Sat 03:08:42 PM 31.6661 -88.4678 154° Southeast 144 166 7,100  Level Memphis Center
Sat 03:09:44 PM 31.6303 -88.4489 156° South 143 165 7,100  Level Memphis Center
Sat 03:10:45 PM 31.5878 -88.4264 156° South 143 165 7,100  Level Memphis Center
Sat 03:11:47 PM 31.5514 -88.4078 156° South 142 163 7,100  Level Memphis Center
Sat 03:12:49 PM 31.5161 -88.3897 156° South 142 163 7,100  Level Memphis Center
Sat 03:13:51 PM 31.4817 -88.3669 151° Southeast 142 163 7,100  Level Memphis Center
Sat 03:14:53 PM 31.4514 -88.3372 140° Southeast 142 163 7,100  Level Memphis Center
Sat 03:15:54 PM 31.4217 -88.3075 140° Southeast 142 163 7,100  Level Memphis Center
Sat 03:16:56 PM 31.3917 -88.2761 138° Southeast 142 163 7,100  Level Memphis Center
Sat 03:17:58 PM 31.3583 -88.2347 133° Southeast 142 163 7,100  Level Memphis Center
Sat 03:19:00 PM 31.3281 -88.2075 142° Southeast 142 163 7,100  Level Memphis Center
Sat 03:20:01 PM 31.2939 -88.1850 151° Southeast 142 163 7,100  Level Memphis Center
Sat 03:21:03 PM 31.2564 -88.1714 163° South 141 162 7,100  Level Memphis Center
Sat 03:22:05 PM 31.2175 -88.1581 164° South 142 163 7,100  Level Memphis Center
Sat 03:23:07 PM 31.1800 -88.1469 166° South 141 162 7,100  Level Memphis Center
Sat 03:24:09 PM 31.1422 -88.1375 168° South 141 162 7,100  Level Memphis Center
Sat 03:25:10 PM 31.1033 -88.1306 171° South 141 162 7,100  Level Memphis Center
Sat 03:26:25 PM 31.0522 -88.1050 157° South 140 161 7,100  Level Houston Center
Sat 03:27:26 PM 31.0150 -88.0881 159° South 140 161 7,100 -195 Level Houston Center
Sat 03:28:28 PM 30.9758 -88.0731 162° South 143 165 6,700 -339 Descending Houston Center
Sat 03:29:30 PM 30.9356 -88.0600 164° South 145 167 6,400 -339 Descending Houston Center
Sat 03:30:32 PM 30.8958 -88.0422 159° South 147 169 6,000 -387 Descending Houston Center
Sat 03:31:34 PM 30.8575 -88.0208 154° Southeast 148 170 5,600 -435 Descending Houston Center
Sat 03:32:36 PM 30.8181 -87.9939 150° Southeast 156 180 5,100 -242 Descending Houston Center
Sat 03:33:38 PM 30.7744 -87.9653 151° Southeast 155 178 5,100  Level Houston Center
Sat 03:34:39 PM 30.7400 -87.9431 151° Southeast 148 170 5,100  Level Houston Center
Sat 03:35:41 PM 30.7050 -87.9222 153° Southeast 145 167 5,100  Level Houston Center
Sat 03:36:43 PM 30.6692 -87.9017 154° Southeast 145 167 5,100  Level Houston Center
Sat 03:37:45 PM 30.6322 -87.8808 154° Southeast 145 167 5,100  Level Houston Center
Sat 03:38:47 PM 30.5947 -87.8603 155° Southeast 145 167 5,100  Level Houston Center
Sat 03:39:48 PM 30.5572 -87.8372 152° Southeast 147 169 5,100  Level Houston Center
Sat 03:40:50 PM 30.5150 -87.8100 151° Southeast 147 169 5,100 -145 Level Houston Center
Sat 03:41:52 PM 30.4789 -87.7858 150° Southeast 148 170 4,800 -581 Descending Houston Center
Sat 03:42:54 PM 30.4411 -87.7586 148° Southeast 152 175 3,900 -976 Descending Houston Center
Sat 03:43:55 PM 30.4036 -87.7319 148° Southeast 155 178 2,800 -829 Descending Houston Center
Sat 03:44:57 PM 30.3656 -87.7039 148° Southeast 152 175 2,200 -581 Descending Houston Center

Login

Don't have an account? Register now (free) for customized features, flight alerts, and more!